Time;durP1;ratioP1;P1;durP2;ratioP2;P2;SDS_P1;SDS_P2;PMS_P1;PMS_P2;Temp;Humidity;BMP_temperature;BMP_pressure;BME280_temperature;BME280_humidity;BME280_pressure;Samples;Min_cycle;Max_cycle;Signal;HPM_P1;HPM_P2
2021/05/26 00:00:55;;;;;;;7.38;2.90;;;;;;;7.77;97.61;100055.72;5036300;28;20099;-69
2021/05/26 00:03:22;;;;;;;11.13;3.50;;;;;;;7.75;95.50;100052.28;5037412;28;20053;-69
2021/05/26 00:05:49;;;;;;;8.90;2.85;;;;;;;7.80;96.40;100054.69;5037181;28;20435;-69
2021/05/26 00:08:29;;;;;;;13.73;3.10;;;;;;;7.77;96.53;100037.09;5037250;28;20049;-69
2021/05/26 00:10:57;;;;;;;10.90;2.50;;;;;;;7.79;97.31;100045.00;5036860;28;20045;-69
2021/05/26 00:13:25;;;;;;;7.40;2.45;;;;;;;7.77;96.45;100042.41;5036927;28;20496;-69
2021/05/26 00:15:52;;;;;;;9.15;2.53;;;;;;;7.69;95.76;100032.19;5036920;28;20060;-70
2021/05/26 00:18:20;;;;;;;10.95;3.00;;;;;;;7.80;95.75;100041.41;5043655;28;20045;-70
2021/05/26 00:20:47;;;;;;;12.30;3.00;;;;;;;7.84;95.35;100038.50;5057076;28;20048;-69
2021/05/26 00:23:16;;;;;;;11.02;2.53;;;;;;;7.91;95.15;100041.72;5056736;28;20431;-69
2021/05/26 00:25:43;;;;;;;12.50;3.03;;;;;;;7.88;96.03;100039.22;5056610;28;20049;-69
2021/05/26 00:28:10;;;;;;;15.13;3.35;;;;;;;7.88;95.86;100039.22;5055678;28;20053;-69
2021/05/26 00:30:44;;;;;;;9.43;3.28;;;;;;;7.93;94.52;100031.00;5056702;28;20072;-69
2021/05/26 00:33:10;;;;;;;8.23;3.00;;;;;;;7.93;94.71;100026.53;5056795;28;20049;-69
2021/05/26 00:35:37;;;;;;;18.10;3.60;;;;;;;7.94;95.15;100027.38;5056689;28;20056;-69
2021/05/26 00:38:04;;;;;;;9.63;2.67;;;;;;;7.96;94.58;100023.72;5055291;28;20094;-69
2021/05/26 00:40:31;;;;;;;14.73;2.92;;;;;;;8.02;95.19;100023.41;5056710;28;20134;-69
2021/05/26 00:42:58;;;;;;;10.98;2.80;;;;;;;8.01;95.59;100024.34;5056441;28;20075;-70
2021/05/26 00:45:25;;;;;;;11.70;2.70;;;;;;;8.06;95.15;100029.41;5056421;28;20064;-69
2021/05/26 00:47:53;;;;;;;12.25;2.95;;;;;;;8.06;96.18;100025.91;5056368;28;20049;-69
2021/05/26 00:50:23;;;;;;;10.95;3.00;;;;;;;8.06;95.89;100029.41;5055200;28;20059;-69
2021/05/26 00:53:00;;;;;;;11.63;3.35;;;;;;;8.01;96.47;100019.03;5056460;28;20049;-69
2021/05/26 00:55:28;;;;;;;14.60;2.75;;;;;;;8.01;96.51;100020.84;5056030;28;20061;-69
2021/05/26 00:57:56;;;;;;;11.32;3.00;;;;;;;8.01;96.64;100021.69;5056189;28;20057;-69
2021/05/26 01:00:24;;;;;;;9.10;2.38;;;;;;;7.93;96.66;100018.56;5055992;28;20114;-69
2021/05/26 01:02:51;;;;;;;12.05;3.17;;;;;;;7.93;98.06;100015.91;5056320;28;20327;-69
2021/05/26 01:05:22;;;;;;;9.13;2.88;;;;;;;7.94;98.03;100007.00;5055708;28;20400;-69
2021/05/26 01:07:49;;;;;;;14.70;3.13;;;;;;;7.87;98.00;100000.28;5055894;28;20055;-69
2021/05/26 01:10:18;;;;;;;11.45;3.45;;;;;;;7.84;98.11;99998.66;5054631;28;20060;-69
2021/05/26 01:12:45;;;;;;;10.30;2.60;;;;;;;7.84;98.11;100003.13;5054691;28;20053;-69
2021/05/26 01:15:15;;;;;;;10.50;2.88;;;;;;;7.78;98.23;100000.78;5054514;28;20044;-69
2021/05/26 01:17:42;;;;;;;12.85;3.17;;;;;;;7.78;98.69;99998.13;5054140;28;20053;-69
2021/05/26 01:20:32;;;;;;;13.98;3.00;;;;;;;7.79;98.55;100002.50;5035899;28;20053;-69
2021/05/26 01:23:00;;;;;;;11.40;2.88;;;;;;;7.81;98.70;99997.94;5036016;28;20060;-69
2021/05/26 01:25:28;;;;;;;12.18;3.10;;;;;;;7.78;99.02;99993.66;5034605;28;20093;-70
2021/05/26 01:27:57;;;;;;;10.77;2.90;;;;;;;7.73;99.44;99993.03;5035426;28;20080;-69
2021/05/26 01:30:24;;;;;;;10.05;2.63;;;;;;;7.70;98.84;99987.88;5035862;28;20140;-69
2021/05/26 01:32:51;;;;;;;7.03;2.42;;;;;;;7.71;99.00;99990.47;5018334;28;20053;-70
2021/05/26 01:35:18;;;;;;;6.65;2.17;;;;;;;7.69;98.85;99989.66;5035524;28;20057;-70
2021/05/26 01:37:47;;;;;;;8.80;2.08;;;;;;;7.69;98.71;99987.00;5035470;28;20427;-70
2021/05/26 01:40:17;;;;;;;19.77;5.30;;;;;;;7.69;98.19;99984.34;5034576;28;20046;-69
2021/05/26 01:42:45;;;;;;;8.90;2.20;;;;;;;7.65;98.16;99980.16;5035379;28;20056;-69
2021/05/26 01:45:14;;;;;;;8.70;2.33;;;;;;;7.64;98.58;99978.44;5035564;28;20076;-69
2021/05/26 01:47:42;;;;;;;13.30;2.40;;;;;;;7.67;98.88;99975.63;5035304;28;20049;-69
2021/05/26 01:50:19;;;;;;;8.20;2.15;;;;;;;7.66;98.82;99986.31;5035413;28;20053;-70
2021/05/26 01:52:50;;;;;;;12.55;2.70;;;;;;;7.67;98.98;99978.28;5035425;28;20416;-69
2021/05/26 01:55:18;;;;;;;12.77;2.80;;;;;;;7.64;99.08;99974.91;5034930;28;20446;-69
2021/05/26 01:57:45;;;;;;;9.15;2.50;;;;;;;7.69;99.60;99975.53;5035591;28;20057;-69
2021/05/26 02:00:14;;;;;;;9.98;2.60;;;;;;;7.64;99.77;99969.59;5035200;28;20046;-69
2021/05/26 02:02:42;;;;;;;15.60;2.75;;;;;;;7.64;100.00;99965.16;5035327;28;20119;-70
2021/05/26 02:05:10;;;;;;;10.90;2.58;;;;;;;7.65;100.00;99968.66;5035002;28;20057;-70
2021/05/26 02:07:37;;;;;;;6.65;2.78;;;;;;;7.63;100.00;99963.44;5033964;28;20050;-69
2021/05/26 02:10:07;;;;;;;10.30;2.95;;;;;;;7.66;100.00;99963.28;5034949;28;20501;-69
2021/05/26 02:12:39;;;;;;;8.68;2.75;;;;;;;7.65;100.00;99956.25;5034937;28;20053;-69
2021/05/26 02:15:10;;;;;;;13.50;2.92;;;;;;;7.66;100.00;99943.81;5033947;28;20427;-69
2021/05/26 02:17:38;;;;;;;10.95;2.72;;;;;;;7.55;100.00;99925.78;5036081;28;20132;-69
2021/05/26 02:20:07;;;;;;;13.18;2.70;;;;;;;7.67;100.00;99946.41;5054749;28;20049;-69
2021/05/26 02:22:34;;;;;;;7.32;2.70;;;;;;;7.64;100.00;99935.06;5055117;28;20044;-70
2021/05/26 02:25:03;;;;;;;9.30;2.70;;;;;;;7.67;100.00;99940.25;5053937;28;20401;-70
2021/05/26 02:27:30;;;;;;;10.05;3.13;;;;;;;7.67;100.00;99937.59;5054967;28;20053;-70
2021/05/26 02:29:56;;;;;;;11.95;3.05;;;;;;;7.63;100.00;99920.94;5054846;28;20045;-70
2021/05/26 02:32:24;;;;;;;7.15;3.08;;;;;;;7.64;100.00;99925.31;5054975;28;20422;-69
2021/05/26 02:34:51;;;;;;;8.38;2.60;;;;;;;7.52;100.00;99907.38;5053878;28;20045;-70
2021/05/26 02:37:17;;;;;;;11.02;2.42;;;;;;;7.72;100.00;99932.88;5053654;28;20052;-69
2021/05/26 02:39:44;;;;;;;9.05;2.53;;;;;;;7.73;100.00;99922.16;5054769;28;20049;-69
2021/05/26 02:42:11;;;;;;;10.13;2.83;;;;;;;7.66;100.00;99918.13;5054915;28;20045;-70
2021/05/26 02:44:37;;;;;;;10.43;2.42;;;;;;;7.75;100.00;99922.09;5054797;28;20115;-69
2021/05/26 02:47:04;;;;;;;7.05;2.55;;;;;;;7.72;100.00;99917.81;5054908;28;20049;-69
2021/05/26 02:49:30;;;;;;;8.25;2.85;;;;;;;7.72;100.00;99907.19;5054593;28;20475;-70
2021/05/26 02:51:57;;;;;;;11.88;3.30;;;;;;;7.70;100.00;99903.75;5054740;28;20048;-69
2021/05/26 02:54:24;;;;;;;9.60;2.65;;;;;;;7.64;100.00;99897.88;5054509;28;20064;-70
2021/05/26 02:56:50;;;;;;;8.63;2.75;;;;;;;7.69;100.00;99906.47;5054728;28;20057;-69
2021/05/26 02:59:17;;;;;;;8.82;2.83;;;;;;;7.67;100.00;99898.59;5054537;28;20507;-70
2021/05/26 03:01:44;;;;;;;13.27;3.00;;;;;;;7.69;100.00;99901.16;5053451;28;20081;-69
2021/05/26 03:04:10;;;;;;;11.43;2.90;;;;;;;7.73;100.00;99892.94;5054873;28;20053;-69
2021/05/26 03:06:37;;;;;;;7.10;2.78;;;;;;;7.75;100.00;99898.19;5054697;28;20057;-70
2021/05/26 03:09:05;;;;;;;6.50;2.72;;;;;;;7.68;100.00;99884.34;5054822;28;20048;-69
2021/05/26 03:11:34;;;;;;;9.57;3.70;;;;;;;7.71;100.00;99891.31;5037568;28;20064;-70
2021/05/26 03:14:01;;;;;;;7.50;3.20;;;;;;;7.69;100.00;99891.38;5056147;28;20080;-70
2021/05/26 03:16:27;;;;;;;6.88;2.83;;;;;;;7.70;100.00;99887.81;5056861;28;20061;-69
2021/05/26 03:18:54;;;;;;;5.00;2.55;;;;;;;7.66;100.00;99890.69;5046200;28;20107;-70
2021/05/26 03:21:21;;;;;;;10.60;2.75;;;;;;;7.65;100.00;99878.34;5037857;28;20050;-70
2021/05/26 03:23:48;;;;;;;7.10;2.28;;;;;;;7.66;100.00;99886.25;5037120;28;20088;-70
2021/05/26 03:26:14;;;;;;;7.10;2.22;;;;;;;7.65;100.00;99891.63;5037849;28;20332;-70
2021/05/26 03:28:41;;;;;;;7.53;2.35;;;;;;;7.63;100.00;99890.88;5037799;28;20054;-69
2021/05/26 03:31:08;;;;;;;6.80;2.22;;;;;;;7.63;100.00;99885.56;5037554;28;20057;-68
2021/05/26 03:33:35;;;;;;;4.50;1.65;;;;;;;7.64;100.00;99887.25;5038077;28;20046;-69
2021/05/26 03:36:04;;;;;;;4.38;2.05;;;;;;;7.65;100.00;99881.88;5036742;28;20061;-68
2021/05/26 03:38:31;;;;;;;6.10;2.00;;;;;;;7.67;100.00;99879.16;5036699;28;20057;-68
2021/05/26 03:40:58;;;;;;;3.22;1.95;;;;;;;7.70;100.00;99877.19;5037433;28;20421;-68
2021/05/26 03:43:25;;;;;;;4.60;2.10;;;;;;;7.68;100.00;99870.22;5037726;28;20099;-69
2021/05/26 03:45:52;;;;;;;6.20;1.95;;;;;;;7.68;100.00;99870.22;5037779;28;20050;-68
2021/05/26 03:48:18;;;;;;;5.65;2.25;;;;;;;7.68;100.00;99873.72;5053345;28;20396;-68
2021/05/26 03:50:45;;;;;;;6.50;1.90;;;;;;;7.70;100.00;99873.66;5057661;28;20061;-68
2021/05/26 03:53:12;;;;;;;2.53;1.63;;;;;;;7.65;100.00;99868.59;5057016;28;20319;-69
2021/05/26 03:55:39;;;;;;;4.45;1.80;;;;;;;7.64;100.00;99861.56;5056230;28;20049;-69
2021/05/26 03:58:05;;;;;;;4.90;2.00;;;;;;;7.69;100.00;99854.19;5057085;28;20126;-69
2021/05/26 04:00:32;;;;;;;4.85;1.83;;;;;;;7.69;100.00;99859.50;5057006;28;20045;-69
2021/05/26 04:02:59;;;;;;;5.10;1.80;;;;;;;7.68;100.00;99851.63;5057321;28;20381;-69
2021/05/26 04:05:25;;;;;;;3.35;1.63;;;;;;;7.64;100.00;99855.38;5056112;28;20126;-69
2021/05/26 04:07:52;;;;;;;4.72;1.85;;;;;;;7.65;100.00;99850.00;5056992;28;20096;-69
2021/05/26 04:10:18;;;;;;;3.35;1.90;;;;;;;7.64;100.00;99839.44;5053421;28;20075;-69
2021/05/26 04:12:45;;;;;;;3.78;1.73;;;;;;;7.64;100.00;99850.06;5036872;28;20041;-69
2021/05/26 04:15:13;;;;;;;4.43;1.70;;;;;;;7.66;100.00;99838.44;5037152;28;20065;-69
2021/05/26 04:17:39;;;;;;;3.25;1.55;;;;;;;7.62;100.00;99842.19;5040916;28;20045;-69
2021/05/26 04:20:07;;;;;;;3.97;1.88;;;;;;;7.65;99.90;99847.34;5036134;28;20136;-69
2021/05/26 04:22:35;;;;;;;4.90;1.40;;;;;;;7.65;100.00;99844.69;5035710;28;20048;-70
2021/05/26 04:25:05;;;;;;;4.05;2.03;;;;;;;7.65;100.00;99836.72;5054852;28;20103;-70
2021/05/26 04:27:31;;;;;;;2.03;1.55;;;;;;;7.66;100.00;99838.44;5055624;28;20064;-70
2021/05/26 04:29:59;;;;;;;4.25;1.88;;;;;;;7.70;100.00;99837.34;5055892;28;20056;-70
2021/05/26 04:32:26;;;;;;;3.92;1.40;;;;;;;7.80;99.50;99834.16;5039819;28;20045;-70
2021/05/26 04:34:53;;;;;;;4.13;1.25;;;;;;;7.71;99.50;99832.88;5036535;28;20505;-69
2021/05/26 04:37:20;;;;;;;3.95;1.20;;;;;;;7.67;98.39;99834.00;5035456;28;20137;-69
2021/05/26 04:39:47;;;;;;;2.17;1.20;;;;;;;7.59;99.53;99824.59;5036536;28;20057;-69
2021/05/26 04:42:14;;;;;;;2.95;1.27;;;;;;;7.66;99.16;99835.78;5044304;28;20049;-69
2021/05/26 04:44:40;;;;;;;3.47;1.02;;;;;;;7.61;99.14;99824.53;5056260;28;20460;-70
2021/05/26 04:47:07;;;;;;;2.65;1.30;;;;;;;7.61;99.24;99827.19;5038544;28;20053;-69
2021/05/26 04:49:34;;;;;;;3.15;1.33;;;;;;;7.58;99.21;99824.72;5036409;28;20115;-77
2021/05/26 04:52:00;;;;;;;2.35;1.30;;;;;;;7.66;99.96;99822.50;5053575;28;20342;-69
2021/05/26 04:54:27;;;;;;;2.20;1.27;;;;;;;7.73;99.87;99823.88;5054546;28;20106;-69
2021/05/26 04:56:54;;;;;;;2.47;1.23;;;;;;;7.75;100.00;99815.81;5054535;28;20053;-69
2021/05/26 04:59:20;;;;;;;2.97;1.23;;;;;;;7.76;100.00;99820.19;5054781;28;20053;-69
2021/05/26 05:01:47;;;;;;;4.60;1.10;;;;;;;7.90;100.00;99818.56;5054600;28;20045;-69
2021/05/26 05:04:13;;;;;;;2.80;1.27;;;;;;;7.87;99.33;99817.81;5045917;28;20084;-69
2021/05/26 05:06:40;;;;;;;2.67;1.00;;;;;;;7.90;98.51;99815.91;5043500;28;20098;-69
2021/05/26 05:09:08;;;;;;;2.22;1.30;;;;;;;7.91;99.28;99809.66;5045551;28;20056;-69
2021/05/26 05:11:35;;;;;;;1.95;1.10;;;;;;;7.92;98.25;99814.91;5045306;28;20124;-68
2021/05/26 05:14:02;;;;;;;1.45;1.10;;;;;;;7.85;98.23;99801.06;5045029;28;20127;-69
2021/05/26 05:16:28;;;;;;;4.07;1.00;;;;;;;7.98;98.68;99811.91;5048872;28;20442;-69
2021/05/26 05:18:55;;;;;;;1.90;1.10;;;;;;;7.98;98.45;99816.34;5049346;28;20107;-69
2021/05/26 05:21:22;;;;;;;3.05;1.00;;;;;;;8.00;98.12;99815.31;5051607;28;20141;-69
2021/05/26 05:23:49;;;;;;;2.35;1.20;;;;;;;8.01;98.29;99819.69;5042250;28;20107;-69
2021/05/26 05:26:16;;;;;;;2.78;1.50;;;;;;;7.97;97.85;99812.84;5039454;28;20130;-69
2021/05/26 05:28:43;;;;;;;4.07;1.15;;;;;;;8.05;98.51;99807.09;5052810;28;20315;-69
2021/05/26 05:31:09;;;;;;;2.58;0.80;;;;;;;8.10;97.21;99804.16;5055567;28;20056;-69
2021/05/26 05:33:36;;;;;;;1.63;1.00;;;;;;;8.15;96.77;99808.28;5047201;28;20430;-69
2021/05/26 05:36:03;;;;;;;2.17;0.73;;;;;;;8.14;97.38;99801.28;5051078;28;20292;-73
2021/05/26 05:38:30;;;;;;;1.80;1.15;;;;;;;8.21;96.80;99812.41;5054956;28;20118;-73
2021/05/26 05:40:57;;;;;;;1.98;0.82;;;;;;;8.24;96.67;99811.38;5055859;28;20057;-71
2021/05/26 05:43:23;;;;;;;6.60;0.90;;;;;;;8.18;95.37;99799.28;5055169;28;20114;-70
2021/05/26 05:45:50;;;;;;;1.65;0.80;;;;;;;8.16;95.42;99814.44;5043994;28;20147;-70
2021/05/26 05:48:17;;;;;;;2.58;0.88;;;;;;;8.13;96.32;99815.47;5044429;28;20083;-69
2021/05/26 05:50:44;;;;;;;2.47;0.98;;;;;;;8.11;94.84;99811.19;5049690;28;20060;-70
2021/05/26 05:53:10;;;;;;;2.60;0.90;;;;;;;8.10;95.05;99798.84;5045021;28;20044;-71
2021/05/26 05:55:37;;;;;;;1.27;0.70;;;;;;;8.17;94.59;99813.50;5043174;28;20049;-75
2021/05/26 05:58:04;;;;;;;2.90;0.80;;;;;;;8.14;94.85;99805.72;5043782;28;20045;-73
2021/05/26 06:00:32;;;;;;;1.13;0.77;;;;;;;8.28;95.31;99808.44;5045205;28;20427;-73
2021/05/26 06:02:59;;;;;;;0.95;0.60;;;;;;;8.27;95.90;99809.38;5043594;28;20059;-74
2021/05/26 06:05:30;;;;;;;1.50;0.80;;;;;;;8.34;96.45;99798.41;5053312;28;20053;-70
2021/05/26 06:07:57;;;;;;;2.17;0.88;;;;;;;8.39;95.07;99805.16;5055184;28;20064;-76
2021/05/26 06:10:23;;;;;;;1.08;0.70;;;;;;;8.44;94.19;99802.22;5053921;28;20575;-70
2021/05/26 06:12:53;;;;;;;1.83;1.05;;;;;;;8.49;93.15;99801.97;5054752;28;20041;-69
2021/05/26 06:15:21;;;;;;;3.05;0.90;;;;;;;8.43;92.77;99803.19;5053723;28;20053;-70
2021/05/26 06:17:47;;;;;;;2.78;0.95;;;;;;;8.50;94.36;99801.88;5050822;28;20094;-71
2021/05/26 06:20:14;;;;;;;3.08;0.90;;;;;;;8.48;93.52;99803.78;5033292;28;20398;-70
2021/05/26 06:22:40;;;;;;;1.95;0.73;;;;;;;8.49;92.69;99792.19;5034466;28;20053;-70
2021/05/26 06:25:09;;;;;;;1.13;0.60;;;;;;;8.42;92.21;99777.53;5034244;28;20132;-67
2021/05/26 06:27:35;;;;;;;1.27;0.80;;;;;;;8.56;91.86;99787.41;5034390;28;20049;-71
2021/05/26 06:30:03;;;;;;;3.42;1.00;;;;;;;8.55;94.40;99783.88;5033414;28;20054;-69
2021/05/26 06:32:29;;;;;;;1.50;0.90;;;;;;;8.68;94.83;99793.81;5035119;28;20049;-71
2021/05/26 06:34:56;;;;;;;3.30;1.50;;;;;;;8.68;92.67;99799.13;5034818;28;20427;-71
2021/05/26 06:37:23;;;;;;;1.45;0.90;;;;;;;8.75;92.23;99796.94;5034815;28;20401;-70
2021/05/26 06:39:49;;;;;;;1.23;0.90;;;;;;;8.77;92.17;99795.91;5034823;28;20049;-71
2021/05/26 06:42:16;;;;;;;3.10;0.95;;;;;;;8.82;92.87;99782.31;5035065;28;20068;-71
2021/05/26 06:44:43;;;;;;;2.50;0.80;;;;;;;8.82;94.80;99795.63;5033864;28;20049;-69
2021/05/26 06:47:09;;;;;;;2.50;0.95;;;;;;;8.88;94.40;99791.75;5034774;28;20060;-69
2021/05/26 06:49:36;;;;;;;1.90;0.98;;;;;;;8.88;92.58;99792.59;5037489;28;20049;-67
2021/05/26 06:52:03;;;;;;;2.30;1.10;;;;;;;8.85;93.41;99797.25;5038406;28;20427;-69
2021/05/26 06:54:30;;;;;;;1.90;0.82;;;;;;;8.86;93.36;99790.97;5037314;28;20061;-74
2021/05/26 06:56:57;;;;;;;4.13;2.05;;;;;;;8.97;93.94;99793.88;5038710;28;20053;-71
2021/05/26 06:59:26;;;;;;;2.80;0.90;;;;;;;8.97;92.88;99796.53;5037238;28;20085;-71
2021/05/26 07:01:53;;;;;;;1.83;0.80;;;;;;;9.00;93.14;99793.69;5037389;28;20053;-72
2021/05/26 07:04:20;;;;;;;1.98;0.88;;;;;;;9.04;93.71;99795.19;5036441;28;20038;-70
2021/05/26 07:06:47;;;;;;;2.70;1.00;;;;;;;9.05;93.87;99796.91;5038593;28;20054;-71
2021/05/26 07:09:14;;;;;;;3.08;1.10;;;;;;;9.11;95.15;99787.72;5037298;28;20053;-72
2021/05/26 07:11:40;;;;;;;1.88;0.80;;;;;;;9.24;93.55;99795.78;5038132;28;20049;-71
2021/05/26 07:14:08;;;;;;;1.10;0.90;;;;;;;9.20;92.53;99786.28;5038592;28;20045;-70
2021/05/26 07:16:35;;;;;;;1.90;0.93;;;;;;;9.15;93.29;99789.22;5039410;28;20427;-69
2021/05/26 07:19:02;;;;;;;2.63;1.00;;;;;;;9.24;93.65;99798.47;5049827;28;20128;-68
2021/05/26 07:21:29;;;;;;;3.17;1.40;;;;;;;9.14;93.53;99770.69;5057133;28;20049;-71
2021/05/26 07:23:55;;;;;;;1.73;0.95;;;;;;;9.21;93.91;99791.50;5058762;28;20063;-71
2021/05/26 07:26:22;;;;;;;1.08;0.77;;;;;;;9.15;92.99;99788.38;5057824;28;20053;-71
2021/05/26 07:28:50;;;;;;;3.50;1.00;;;;;;;9.09;92.96;99777.16;5056746;28;20056;-72
2021/05/26 07:31:17;;;;;;;1.67;0.90;;;;;;;9.21;94.14;99796.00;5058005;28;20049;-69
2021/05/26 07:33:45;;;;;;;1.10;1.00;;;;;;;9.31;93.03;99782.97;5057725;28;20045;-72
2021/05/26 07:36:12;;;;;;;2.90;0.90;;;;;;;9.26;92.32;99788.56;5057621;28;20049;-72
2021/05/26 07:38:40;;;;;;;2.38;0.90;;;;;;;9.32;92.10;99779.34;5057855;28;20107;-70
2021/05/26 07:41:08;;;;;;;3.10;1.23;;;;;;;9.31;93.47;99786.47;5056117;28;20127;-71
2021/05/26 07:43:35;;;;;;;3.47;1.00;;;;;;;9.37;92.51;99782.56;5057817;28;20056;-71
2021/05/26 07:46:04;;;;;;;2.40;1.25;;;;;;;9.42;93.36;99784.97;5056658;28;20055;-70
2021/05/26 07:48:31;;;;;;;2.00;1.00;;;;;;;9.31;92.64;99788.31;5056481;28;20045;-68
2021/05/26 07:50:59;;;;;;;2.88;0.90;;;;;;;9.20;92.82;99784.47;5057380;28;20048;-68
2021/05/26 07:53:26;;;;;;;5.13;1.38;;;;;;;9.20;93.61;99783.59;5056998;28;20049;-72
2021/05/26 07:55:52;;;;;;;2.35;1.20;;;;;;;9.29;93.98;99780.41;5057305;28;20049;-68
2021/05/26 07:58:19;;;;;;;2.20;1.20;;;;;;;9.31;94.37;99772.31;5057622;28;20057;-69
2021/05/26 08:00:49;;;;;;;2.28;1.02;;;;;;;9.44;94.53;99772.41;5055890;28;20056;-68
2021/05/26 08:03:16;;;;;;;2.17;1.20;;;;;;;9.50;93.97;99774.69;5057109;28;20053;-68
2021/05/26 08:05:43;;;;;;;1.90;1.05;;;;;;;9.51;92.44;99776.38;5057110;28;20045;-68
2021/05/26 08:08:10;;;;;;;3.60;1.10;;;;;;;9.74;93.16;99768.72;5055978;28;20057;-69
2021/05/26 08:10:36;;;;;;;1.13;1.00;;;;;;;9.65;91.54;99767.53;5056105;28;20099;-69
2021/05/26 08:13:04;;;;;;;3.70;1.10;;;;;;;9.63;91.29;99775.63;5055886;28;20045;-69
2021/05/26 08:15:30;;;;;;;4.38;1.40;;;;;;;9.76;92.05;99766.84;5056053;28;20110;-70
2021/05/26 08:17:57;;;;;;;4.53;1.30;;;;;;;9.73;90.65;99767.03;5053135;28;20194;-71
2021/05/26 08:20:24;;;;;;;1.85;1.13;;;;;;;9.83;91.98;99767.28;5035729;28;20049;-71
2021/05/26 08:22:50;;;;;;;1.58;1.00;;;;;;;9.93;92.92;99771.09;5036803;28;20115;-70
2021/05/26 08:25:18;;;;;;;2.50;1.30;;;;;;;9.92;91.43;99764.88;5035925;28;20118;-69
2021/05/26 08:27:45;;;;;;;1.92;1.08;;;;;;;9.88;92.77;99763.41;5037038;28;20053;-70
2021/05/26 08:30:12;;;;;;;4.05;1.17;;;;;;;9.92;92.12;99767.56;5036937;28;20123;-72
2021/05/26 08:32:39;;;;;;;1.73;1.10;;;;;;;9.87;90.97;99760.81;5036869;28;20106;-69
2021/05/26 08:35:07;;;;;;;3.25;1.33;;;;;;;9.95;91.90;99754.97;5036704;28;20355;-71
2021/05/26 08:37:33;;;;;;;4.63;1.20;;;;;;;10.05;92.83;99756.09;5035655;28;20492;-72
2021/05/26 08:40:00;;;;;;;2.75;1.08;;;;;;;10.17;92.16;99760.63;5036725;28;20056;-71
2021/05/26 08:42:27;;;;;;;2.55;1.20;;;;;;;10.11;91.75;99755.69;5035609;28;20072;-70
2021/05/26 08:44:53;;;;;;;2.92;1.27;;;;;;;10.06;91.08;99768.47;5036696;28;20328;-72
2021/05/26 08:47:20;;;;;;;2.63;1.23;;;;;;;9.99;91.17;99761.84;5036430;28;20057;-72
2021/05/26 08:49:49;;;;;;;3.75;1.42;;;;;;;10.04;92.69;99757.91;5035411;28;20457;-71
2021/05/26 08:52:18;;;;;;;3.53;1.40;;;;;;;10.19;92.40;99761.38;5036456;28;20111;-71
2021/05/26 08:54:49;;;;;;;2.92;1.42;;;;;;;10.16;91.31;99753.59;5036133;28;20050;-72
2021/05/26 08:57:17;;;;;;;2.35;1.40;;;;;;;10.03;91.11;99755.34;5036177;28;20057;-70
2021/05/26 08:59:44;;;;;;;3.47;1.30;;;;;;;9.95;91.38;99762.97;5036336;28;20049;-72
2021/05/26 09:02:12;;;;;;;2.13;1.40;;;;;;;9.87;90.54;99744.84;5036071;28;20053;-72
2021/05/26 09:04:39;;;;;;;3.92;1.35;;;;;;;9.74;93.69;99760.75;5036357;28;20054;-72
2021/05/26 09:07:13;;;;;;;4.30;1.80;;;;;;;9.82;93.57;99763.78;5036280;28;20061;-68
2021/05/26 09:09:52;;;;;;;1.85;1.55;;;;;;;9.78;93.09;99757.81;5036440;28;20049;-71
2021/05/26 09:12:30;;;;;;;5.45;1.90;;;;;;;9.82;93.93;99763.78;5035152;28;20057;-72
2021/05/26 09:15:08;;;;;;;2.63;1.60;;;;;;;9.75;93.57;99759.81;5035781;28;20084;-69
2021/05/26 09:17:35;;;;;;;2.47;1.42;;;;;;;9.71;94.10;99766.28;5035375;28;20427;-72
2021/05/26 09:20:12;;;;;;;3.08;1.60;;;;;;;9.73;95.27;99751.03;5055807;28;20049;-72
2021/05/26 09:22:59;;;;;;;3.67;2.00;;;;;;;9.78;95.39;99751.59;5055834;28;20092;-70
2021/05/26 09:25:27;;;;;;;2.15;1.50;;;;;;;9.81;95.61;99748.72;5055659;28;20057;-70
2021/05/26 09:28:13;;;;;;;2.28;1.40;;;;;;;9.95;92.11;99746.97;5055798;28;20049;-70
2021/05/26 09:30:41;;;;;;;4.18;1.42;;;;;;;10.03;94.00;99744.69;5056082;28;20064;-70
2021/05/26 09:33:28;;;;;;;2.42;1.48;;;;;;;10.18;92.49;99740.13;5055643;28;20111;-73
2021/05/26 09:36:13;;;;;;;2.58;1.42;;;;;;;10.21;91.29;99731.06;5047608;28;20053;-72
2021/05/26 09:38:46;;;;;;;2.83;1.30;;;;;;;10.07;91.29;99719.50;5045965;28;20045;-72
2021/05/26 09:41:22;;;;;;;1.85;1.25;;;;;;;10.41;91.10;99721.75;5036234;28;20049;-70
2021/05/26 09:44:11;;;;;;;2.20;1.75;;;;;;;10.54;91.50;99719.13;5053821;28;20100;-73
2021/05/26 09:46:39;;;;;;;2.60;1.40;;;;;;;10.58;89.47;99712.63;5054656;28;20115;-72
2021/05/26 09:49:14;;;;;;;1.77;1.10;;;;;;;10.85;91.56;99719.72;5054675;28;20055;-71
2021/05/26 09:51:43;;;;;;;2.60;1.35;;;;;;;10.92;92.29;99723.66;5055202;28;20410;-72
2021/05/26 09:54:11;;;;;;;1.63;0.93;;;;;;;10.99;89.86;99724.06;5054923;28;20084;-73
2021/05/26 09:56:40;;;;;;;1.45;0.52;;;;;;;10.76;88.51;99733.66;5054168;28;20056;-71
2021/05/26 09:59:08;;;;;;;1.58;0.82;;;;;;;10.59;86.95;99731.19;5055465;28;20103;-73
2021/05/26 10:01:36;;;;;;;2.00;0.90;;;;;;;10.52;88.88;99713.88;5054999;28;20131;-72
2021/05/26 10:04:03;;;;;;;0.90;0.82;;;;;;;10.70;89.47;99737.63;5055051;28;20143;-69
2021/05/26 10:06:31;;;;;;;1.67;0.70;;;;;;;10.59;89.99;99720.50;5054325;28;20343;-74
2021/05/26 10:08:59;;;;;;;0.98;0.77;;;;;;;10.73;88.58;99743.59;5054027;28;20048;-75
2021/05/26 10:11:33;;;;;;;1.08;0.80;;;;;;;10.72;87.17;99743.72;5055191;28;20423;-74
2021/05/26 10:14:11;;;;;;;2.80;0.57;;;;;;;10.75;89.04;99751.53;5054917;28;20056;-75
2021/05/26 10:16:44;;;;;;;1.95;0.90;;;;;;;10.79;88.42;99731.66;5046449;28;20390;-73
2021/05/26 10:19:13;;;;;;;1.35;0.90;;;;;;;10.97;89.39;99740.22;5038575;28;20057;-74
2021/05/26 10:21:41;;;;;;;1.30;1.00;;;;;;;10.96;87.60;99738.47;5046403;28;20116;-74
2021/05/26 10:24:10;;;;;;;0.50;0.50;;;;;;;11.10;86.72;99731.31;5046093;28;20068;-72
2021/05/26 10:26:50;;;;;;;1.30;0.70;;;;;;;11.27;86.16;99751.50;5046820;28;20046;-73
2021/05/26 10:29:29;;;;;;;1.33;0.77;;;;;;;11.22;84.94;99743.81;5045172;28;20141;-73
2021/05/26 10:32:06;;;;;;;1.10;0.90;;;;;;;11.03;85.73;99732.72;5049293;28;20287;-71
2021/05/26 10:34:42;;;;;;;0.70;0.70;;;;;;;11.07;84.48;99755.59;5044333;28;20045;-73
2021/05/26 10:37:10;;;;;;;2.22;0.90;;;;;;;11.08;86.75;99742.13;5046077;28;20137;-70
2021/05/26 10:39:40;;;;;;;1.75;1.00;;;;;;;11.20;86.63;99755.56;5049422;28;20392;-70
2021/05/26 10:42:24;;;;;;;5.07;0.88;;;;;;;11.38;84.70;99748.94;5050912;28;20222;-72
2021/05/26 10:44:58;;;;;;;0.77;0.75;;;;;;;11.44;81.99;99752.97;5031902;28;20434;-72
2021/05/26 10:47:36;;;;;;;2.00;1.10;;;;;;;11.42;84.49;99760.25;5046600;28;20053;-71
2021/05/26 10:50:17;;;;;;;3.00;1.73;;;;;;;11.52;83.55;99749.78;5047401;28;20410;-72
2021/05/26 10:52:57;;;;;;;1.42;0.88;;;;;;;11.60;84.10;99767.94;5045902;28;20142;-73
2021/05/26 10:55:35;;;;;;;1.70;0.90;;;;;;;11.78;84.90;99765.75;5044075;28;20053;-74
2021/05/26 10:58:25;;;;;;;1.30;1.20;;;;;;;11.87;82.33;99767.75;5047323;28;20304;-68
2021/05/26 11:00:55;;;;;;;1.17;0.88;;;;;;;11.86;81.75;99765.16;5048325;28;20055;-71
2021/05/26 11:03:28;;;;;;;2.03;1.10;;;;;;;11.92;83.62;99767.41;5053712;28;20052;-71
2021/05/26 11:05:55;;;;;;;1.10;0.90;;;;;;;12.09;82.30;99769.75;5057635;28;20434;-74
2021/05/26 11:08:59;;;;;;;1.42;0.75;;;;;;;12.16;80.05;99774.63;5057574;28;20110;-69
2021/05/26 11:11:29;;;;;;;1.38;1.00;;;;;;;12.63;83.55;99772.88;5057793;28;20049;-73
2021/05/26 11:14:25;;;;;;;1.48;1.05;;;;;;;12.79;75.78;99769.03;5057619;28;20364;-70
2021/05/26 11:17:02;;;;;;;2.60;1.02;;;;;;;12.85;75.78;99765.88;5056738;28;20457;-69
2021/05/26 11:19:30;;;;;;;2.70;1.15;;;;;;;12.75;76.08;99764.91;5041774;28;20127;-70
2021/05/26 11:22:24;;;;;;;1.20;1.10;;;;;;;13.22;77.41;99767.53;5037885;28;20439;-73
2021/05/26 11:24:52;;;;;;;1.60;1.00;;;;;;;13.66;73.72;99762.31;5038100;28;20055;-73
2021/05/26 11:27:31;;;;;;;2.22;1.30;;;;;;;13.50;75.11;99765.38;5036930;28;20486;-72
2021/05/26 11:30:03;;;;;;;2.25;1.00;;;;;;;13.41;73.74;99766.91;5053369;28;20057;-73
2021/05/26 11:32:31;;;;;;;2.90;1.00;;;;;;;13.09;73.64;99764.97;5037126;28;20115;-71
2021/05/26 11:35:01;;;;;;;2.22;1.02;;;;;;;12.69;75.76;99728.72;5036766;28;20045;-74
2021/05/26 11:37:40;;;;;;;1.48;1.20;;;;;;;12.88;74.18;99759.44;5020480;28;20088;-71
2021/05/26 11:40:16;;;;;;;2.88;1.00;;;;;;;13.06;73.61;99773.22;5037582;28;20435;-73
2021/05/26 11:42:43;;;;;;;1.52;1.05;;;;;;;13.29;74.83;99759.88;5037607;28;20049;-71
2021/05/26 11:45:13;;;;;;;2.60;0.85;;;;;;;13.18;71.78;99758.88;5037871;28;20049;-71